createdAt,value
2018-09-01T00:01:28.170Z,1.00
2018-09-01T00:03:58.776Z,1.00
2018-09-01T00:06:29.745Z,1.00
2018-09-01T00:09:01.202Z,1.00
2018-09-01T00:11:32.667Z,1.00
2018-09-01T00:14:03.392Z,1.00
2018-09-01T00:16:42.883Z,1.00
2018-09-01T00:19:14.090Z,1.00
2018-09-01T00:21:45.520Z,1.00
2018-09-01T00:24:16.173Z,1.00
2018-09-01T00:26:46.916Z,1.00
2018-09-01T00:29:17.784Z,1.00
2018-09-01T00:31:49.013Z,1.00
2018-09-01T00:34:19.519Z,1.00
2018-09-01T00:36:50.238Z,1.00
2018-09-01T00:39:21.825Z,1.00
2018-09-01T00:41:53.032Z,1.00
2018-09-01T00:44:23.613Z,1.00
2018-09-01T00:46:54.411Z,1.00
2018-09-01T00:49:25.399Z,1.00
2018-09-01T00:51:56.085Z,1.00
2018-09-01T00:54:27.085Z,1.00
2018-09-01T00:56:57.884Z,1.00
2018-09-01T00:59:28.691Z,1.00
2018-09-01T01:01:59.314Z,1.00
2018-09-01T01:04:31.372Z,1.00
2018-09-01T01:07:05.150Z,1.00
2018-09-01T01:09:39.979Z,1.00
2018-09-01T01:12:10.644Z,1.00
2018-09-01T01:14:41.614Z,1.00
2018-09-01T01:17:12.474Z,1.00
2018-09-01T01:19:43.369Z,1.00
2018-09-01T01:22:18.766Z,1.00
2018-09-01T01:24:50.157Z,1.00
2018-09-01T01:27:20.931Z,1.00
2018-09-01T01:29:51.619Z,1.00
2018-09-01T01:32:22.579Z,1.00
2018-09-01T01:34:53.313Z,1.00
2018-09-01T01:37:24.230Z,1.00
2018-09-01T01:39:55.394Z,1.00
2018-09-01T01:42:25.966Z,1.00
2018-09-01T01:44:56.947Z,1.00
2018-09-01T01:47:27.505Z,1.00
2018-09-01T01:49:59.011Z,1.00
2018-09-01T01:52:29.939Z,1.00
2018-09-01T01:55:00.782Z,1.00
2018-09-01T01:57:41.104Z,1.00
2018-09-01T02:00:13.337Z,1.00
2018-09-01T02:02:44.225Z,1.00
2018-09-01T02:05:21.993Z,1.00
2018-09-01T02:07:54.247Z,1.00
2018-09-01T02:10:25.223Z,1.00
2018-09-01T02:12:55.938Z,1.00
2018-09-01T02:15:27.062Z,1.00
2018-09-01T02:17:58.746Z,1.00
2018-09-01T02:20:30.806Z,1.00
2018-09-01T02:23:01.429Z,1.00
2018-09-01T02:25:32.133Z,1.00
2018-09-01T02:28:02.899Z,1.00
2018-09-01T02:30:33.807Z,1.00
2018-09-01T02:33:11.490Z,1.00
2018-09-01T02:35:42.796Z,1.00
2018-09-01T02:38:13.597Z,1.00
2018-09-01T02:40:44.448Z,1.00
2018-09-01T02:43:15.280Z,1.00
2018-09-01T02:45:46.152Z,1.00
2018-09-01T02:51:28.912Z,1.00
2018-09-01T02:53:59.494Z,1.00
2018-09-01T02:56:30.560Z,1.00
2018-09-01T02:59:05.803Z,1.00
2018-09-01T03:01:46.274Z,1.00
2018-09-01T03:04:25.140Z,1.00
2018-09-01T03:07:00.084Z,1.00
2018-09-01T03:09:30.741Z,1.00
2018-09-01T03:12:03.710Z,1.00
2018-09-01T03:14:35.145Z,1.00
2018-09-01T03:17:06.362Z,1.00
2018-09-01T03:19:37.441Z,1.00
2018-09-01T03:22:11.790Z,1.00
2018-09-01T03:24:44.123Z,1.00
2018-09-01T03:27:14.959Z,1.00
2018-09-01T03:29:47.851Z,1.00
2018-09-01T03:32:18.771Z,1.00
2018-09-01T03:35:03.870Z,1.00
2018-09-01T03:37:34.676Z,1.00
2018-09-01T03:40:06.536Z,1.00
2018-09-01T03:42:37.602Z,1.00
2018-09-01T03:45:08.476Z,1.00
2018-09-01T03:47:44.122Z,1.00
2018-09-01T03:50:14.848Z,1.00
2018-09-01T03:52:48.508Z,1.00
2018-09-01T03:55:19.577Z,1.00
2018-09-01T04:00:38.628Z,1.00
2018-09-01T04:03:19.160Z,1.00
2018-09-01T04:06:00.842Z,1.00
2018-09-01T04:08:31.972Z,1.00
2018-09-01T04:11:02.802Z,1.00
2018-09-01T04:13:33.724Z,1.00
2018-09-01T04:16:04.465Z,1.00
2018-09-01T04:18:42.317Z,1.00
2018-09-01T04:21:17.895Z,1.00
2018-09-01T04:33:29.603Z,1.00
2018-09-01T04:36:18.466Z,1.00
2018-09-01T04:39:12.565Z,1.00
2018-09-01T04:41:43.542Z,1.00
2018-09-01T04:44:14.411Z,1.00
2018-09-01T04:46:45.546Z,1.00
2018-09-01T04:49:40.775Z,1.00
2018-09-01T04:52:42.289Z,1.00
2018-09-01T04:55:13.285Z,1.00
2018-09-01T04:57:44.139Z,1.00
2018-09-01T05:00:25.201Z,1.00
2018-09-01T05:02:55.769Z,1.00
2018-09-01T05:05:26.716Z,1.00
2018-09-01T05:07:57.360Z,1.00
2018-09-01T05:10:28.070Z,1.00
2018-09-01T05:13:11.863Z,1.00
2018-09-01T05:15:43.079Z,1.00
2018-09-01T05:21:12.454Z,1.00
2018-09-01T05:23:43.148Z,1.00
2018-09-01T05:29:24.286Z,1.00
2018-09-01T05:31:55.401Z,1.00
2018-09-01T05:34:26.210Z,1.00
2018-09-01T05:36:57.878Z,1.00
2018-09-01T05:39:30.822Z,1.00
2018-09-01T05:42:10.060Z,1.00
2018-09-01T05:44:41.570Z,1.00
2018-09-01T05:47:13.140Z,1.00
2018-09-01T05:49:43.996Z,1.00
2018-09-01T05:52:14.647Z,1.00
2018-09-01T05:54:46.688Z,1.00
2018-09-01T05:57:17.262Z,1.00
2018-09-01T05:59:48.432Z,1.00
2018-09-01T06:02:19.354Z,1.00
2018-09-01T06:04:50.447Z,1.00
2018-09-01T06:07:25.263Z,1.00
2018-09-01T06:12:45.088Z,1.00
2018-09-01T06:15:15.725Z,1.00
2018-09-01T06:17:46.795Z,1.00
2018-09-01T06:20:17.507Z,1.00
2018-09-01T06:22:48.606Z,1.00
2018-09-01T06:25:19.349Z,1.00
2018-09-01T06:27:57.096Z,1.00
2018-09-01T06:40:22.503Z,1.00
2018-09-01T06:42:54.915Z,1.00
2018-09-01T06:45:26.727Z,1.00
2018-09-01T06:47:57.328Z,1.00
2018-09-01T06:50:45.093Z,1.00
2018-09-01T06:53:15.652Z,99.90
2018-09-01T06:55:46.653Z,99.90
2018-09-01T06:58:17.531Z,99.90
2018-09-01T07:00:48.511Z,99.90
2018-09-01T07:03:19.060Z,1.00
2018-09-01T07:05:49.962Z,99.90
2018-09-01T07:08:24.459Z,99.90
2018-09-01T07:10:56.018Z,99.90
2018-09-01T07:13:37.327Z,99.90
2018-09-01T07:16:14.657Z,99.90
2018-09-01T07:18:46.857Z,99.90
2018-09-01T07:21:17.303Z,99.90
2018-09-01T07:23:50.251Z,99.90
2018-09-01T07:26:40.865Z,99.90
2018-09-01T07:29:14.437Z,99.90
2018-09-01T07:31:45.175Z,99.90
2018-09-01T07:34:17.922Z,99.90
2018-09-01T07:36:48.508Z,99.90
2018-09-01T07:39:19.093Z,99.90
2018-09-01T07:41:49.533Z,99.90
2018-09-01T07:44:20.195Z,99.90
2018-09-01T07:46:50.795Z,99.90
2018-09-01T07:49:21.495Z,99.90
2018-09-01T07:52:01.881Z,99.90
2018-09-01T07:54:32.774Z,99.90
2018-09-01T07:57:03.495Z,99.90
2018-09-01T07:59:34.125Z,99.90
2018-09-01T08:02:04.438Z,99.90
2018-09-01T08:04:35.656Z,99.90
2018-09-01T08:07:06.101Z,99.90
2018-09-01T08:09:36.425Z,99.90
2018-09-01T08:12:06.995Z,99.90
2018-09-01T08:14:37.714Z,99.90
2018-09-01T08:17:08.274Z,99.90
2018-09-01T08:19:39.091Z,99.90
2018-09-01T08:22:10.409Z,99.90
2018-09-01T08:24:40.672Z,99.90
2018-09-01T08:27:12.162Z,99.90
2018-09-01T08:29:43.161Z,99.90
2018-09-01T08:32:14.416Z,99.90
2018-09-01T08:34:45.131Z,99.90
2018-09-01T08:37:16.207Z,99.90
2018-09-01T08:39:46.722Z,99.90
2018-09-01T08:42:18.111Z,99.90
2018-09-01T08:44:48.849Z,99.90
2018-09-01T08:47:19.133Z,99.90
2018-09-01T08:49:49.515Z,99.90
2018-09-01T08:52:20.207Z,99.90
2018-09-01T08:54:50.821Z,99.90
2018-09-01T08:57:21.571Z,99.90
2018-09-01T08:59:52.225Z,90.30
2018-09-01T09:02:23.187Z,36.60
2018-09-01T09:04:54.047Z,52.10
2018-09-01T09:07:24.695Z,60.50
2018-09-01T09:09:55.406Z,63.70
2018-09-01T09:12:26.604Z,39.90
2018-09-01T09:14:57.399Z,26.70
2018-09-01T09:17:29.262Z,37.30
2018-09-01T09:19:59.968Z,30.60
2018-09-01T09:22:30.762Z,73.90
2018-09-01T09:25:01.477Z,42.80
2018-09-01T09:27:32.987Z,38.00
2018-09-01T09:30:04.326Z,21.60
2018-09-01T09:32:35.715Z,28.20
2018-09-01T09:35:06.529Z,19.50
2018-09-01T09:37:37.381Z,13.50
2018-09-01T09:40:08.568Z,11.50
2018-09-01T09:42:39.996Z,3.70
2018-09-01T09:45:11.226Z,2.50
2018-09-01T09:47:41.904Z,1.60
2018-09-01T09:50:12.527Z,29.20
2018-09-01T09:52:43.289Z,22.40
2018-09-01T09:55:13.997Z,7.30
2018-09-01T09:57:45.306Z,7.60
2018-09-01T10:00:20.153Z,9.90
2018-09-01T10:02:50.932Z,17.80
2018-09-01T10:05:21.727Z,16.40
2018-09-01T10:07:52.522Z,1.00
2018-09-01T10:10:23.230Z,1.00
2018-09-01T10:12:54.274Z,1.00
2018-09-01T10:15:25.239Z,1.00
2018-09-01T10:17:56.140Z,4.60
2018-09-01T10:20:27.175Z,1.00
2018-09-01T10:22:58.182Z,1.00
2018-09-01T10:25:29.095Z,1.00
2018-09-01T10:27:59.864Z,1.00
2018-09-01T10:30:31.040Z,1.00
2018-09-01T10:33:02.063Z,1.00
2018-09-01T10:35:32.976Z,1.00
2018-09-01T10:38:04.127Z,2.30
2018-09-01T10:40:34.871Z,4.20
2018-09-01T10:43:06.142Z,19.50
2018-09-01T10:45:37.044Z,1.00
2018-09-01T10:48:08.439Z,1.00
2018-09-01T10:50:39.212Z,1.00
2018-09-01T10:53:10.149Z,1.00
2018-09-01T10:55:40.962Z,1.00
2018-09-01T10:58:11.956Z,1.00
2018-09-01T11:00:42.785Z,1.00
2018-09-01T11:03:13.564Z,1.00
2018-09-01T11:05:44.498Z,1.00
2018-09-01T11:08:15.480Z,1.00
2018-09-01T11:10:46.346Z,1.00
2018-09-01T11:13:17.328Z,1.00
2018-09-01T11:15:47.971Z,1.00
2018-09-01T11:18:18.829Z,1.00
2018-09-01T11:20:49.728Z,1.00
2018-09-01T11:23:20.702Z,1.00
2018-09-01T11:25:51.573Z,1.00
2018-09-01T11:28:22.319Z,1.00
2018-09-01T11:30:53.598Z,1.00
2018-09-01T11:33:24.642Z,1.00
2018-09-01T11:35:55.427Z,1.00
2018-09-01T11:38:26.112Z,1.00
2018-09-01T11:40:56.736Z,1.00
2018-09-01T11:43:27.328Z,1.00
2018-09-01T11:45:59.016Z,1.00
2018-09-01T11:48:29.796Z,1.00
2018-09-01T11:51:00.358Z,1.00
2018-09-01T11:53:31.125Z,1.00
2018-09-01T11:56:01.899Z,1.00
2018-09-01T11:58:33.058Z,1.00
2018-09-01T12:01:03.945Z,1.00
2018-09-01T12:03:34.909Z,1.00
2018-09-01T12:06:05.927Z,1.00
2018-09-01T12:08:36.725Z,1.00
2018-09-01T12:11:07.941Z,1.00
2018-09-01T12:13:38.809Z,1.00
2018-09-01T12:16:09.517Z,1.00
2018-09-01T12:18:40.248Z,1.00
2018-09-01T12:21:11.219Z,1.00
2018-09-01T12:23:42.486Z,1.00
2018-09-01T12:26:13.561Z,1.00
2018-09-01T12:28:44.304Z,1.00
2018-09-01T12:31:15.145Z,1.00
2018-09-01T12:33:45.879Z,1.00
2018-09-01T12:36:17.285Z,1.00
2018-09-01T12:38:48.060Z,1.00
2018-09-01T12:41:19.096Z,1.00
2018-09-01T12:43:49.983Z,1.00
2018-09-01T12:46:20.631Z,1.00
2018-09-01T12:48:51.323Z,1.00
2018-09-01T12:51:21.974Z,1.00
2018-09-01T12:53:53.003Z,1.00
2018-09-01T12:56:23.922Z,1.00
2018-09-01T12:58:54.633Z,1.00
2018-09-01T13:01:25.487Z,1.00
2018-09-01T13:03:56.051Z,1.00
2018-09-01T13:06:26.639Z,1.00
2018-09-01T13:08:57.522Z,1.00
2018-09-01T13:11:28.723Z,1.00
2018-09-01T13:13:59.381Z,1.00
2018-09-01T13:16:30.332Z,1.00
2018-09-01T13:19:01.248Z,1.00
2018-09-01T13:21:32.177Z,1.00
2018-09-01T13:24:02.866Z,1.00
2018-09-01T13:26:33.511Z,1.00
2018-09-01T13:29:04.535Z,1.00
2018-09-01T13:31:35.651Z,1.00
2018-09-01T13:34:06.322Z,1.00
2018-09-01T13:36:36.986Z,1.00
2018-09-01T13:39:08.585Z,1.00
2018-09-01T13:41:39.399Z,1.00
2018-09-01T13:44:10.281Z,1.00
2018-09-01T13:46:41.367Z,1.00
2018-09-01T13:49:12.117Z,1.00
2018-09-01T13:51:42.856Z,1.00
2018-09-01T13:54:13.678Z,1.00
2018-09-01T13:56:44.756Z,1.00
2018-09-01T13:59:15.852Z,1.00
2018-09-01T14:01:46.762Z,1.00
2018-09-01T14:04:17.853Z,1.00
2018-09-01T14:06:48.466Z,1.00
2018-09-01T14:09:19.721Z,1.00
2018-09-01T14:11:50.643Z,1.00
2018-09-01T14:14:21.422Z,1.00
2018-09-01T14:16:53.043Z,1.00
2018-09-01T14:19:23.959Z,1.00
2018-09-01T14:21:54.737Z,1.00
2018-09-01T14:24:25.408Z,1.00
2018-09-01T14:26:56.867Z,1.00
2018-09-01T14:29:27.535Z,1.00
2018-09-01T14:31:58.616Z,1.00
2018-09-01T14:34:29.313Z,1.00
2018-09-01T14:36:59.974Z,1.00
2018-09-01T14:39:30.879Z,1.00
2018-09-01T14:42:01.592Z,1.00
2018-09-01T14:44:32.483Z,1.00
2018-09-01T14:47:04.216Z,1.00
2018-09-01T14:49:35.189Z,1.00
2018-09-01T14:52:06.572Z,1.00
2018-09-01T14:54:37.625Z,1.00
2018-09-01T14:57:08.490Z,1.00
2018-09-01T14:59:39.115Z,1.00
2018-09-01T15:02:10.203Z,1.00
2018-09-01T15:04:40.904Z,1.00
2018-09-01T15:07:11.933Z,1.00
2018-09-01T15:09:42.844Z,1.00
2018-09-01T15:12:13.484Z,1.00
2018-09-01T15:14:44.608Z,1.00
2018-09-01T15:17:15.416Z,1.00
2018-09-01T15:19:46.380Z,1.00
2018-09-01T15:22:17.234Z,1.00
2018-09-01T15:24:48.015Z,1.00
2018-09-01T15:27:19.050Z,1.00
2018-09-01T15:29:50.111Z,1.00
2018-09-01T15:32:21.218Z,1.00
2018-09-01T15:34:52.193Z,1.00
2018-09-01T15:37:22.987Z,1.00
2018-09-01T15:39:53.636Z,1.00
2018-09-01T15:42:24.508Z,1.00
2018-09-01T15:44:55.567Z,1.00
2018-09-01T15:47:26.991Z,1.00
2018-09-01T15:49:58.148Z,1.00
2018-09-01T15:52:28.988Z,1.00
2018-09-01T15:55:00.140Z,1.00
2018-09-01T15:57:30.926Z,1.00
2018-09-01T16:00:01.766Z,1.00
2018-09-01T16:02:32.747Z,1.00
2018-09-01T16:05:03.842Z,1.00
2018-09-01T16:07:34.634Z,1.00
2018-09-01T16:10:05.421Z,1.00
2018-09-01T16:12:36.460Z,1.00
2018-09-01T16:15:08.558Z,1.00
2018-09-01T16:17:40.246Z,1.00
2018-09-01T16:20:11.715Z,1.00
2018-09-01T16:22:42.750Z,1.00
2018-09-01T16:25:13.837Z,1.00
2018-09-01T16:27:44.664Z,1.00
2018-09-01T16:30:15.785Z,1.00
2018-09-01T16:32:46.558Z,1.00
2018-09-01T16:35:17.693Z,1.00
2018-09-01T16:37:48.768Z,1.00
2018-09-01T16:40:19.740Z,1.00
2018-09-01T16:42:50.900Z,1.00
2018-09-01T16:45:22.574Z,1.00
2018-09-01T16:47:53.938Z,1.00
2018-09-01T16:50:25.161Z,1.00
2018-09-01T16:52:55.939Z,1.00
2018-09-01T16:55:26.879Z,1.00
2018-09-01T16:57:57.658Z,1.00
2018-09-01T17:00:28.629Z,1.00
2018-09-01T17:02:59.276Z,1.00
2018-09-01T17:05:30.219Z,1.00
2018-09-01T17:08:00.984Z,1.00
2018-09-01T17:10:31.812Z,1.00
2018-09-01T17:13:02.770Z,1.00
2018-09-01T17:15:33.649Z,1.00
2018-09-01T17:18:04.637Z,1.00
2018-09-01T17:20:35.055Z,1.00
2018-09-01T17:23:06.145Z,1.00
2018-09-01T17:25:37.397Z,1.00
2018-09-01T17:28:08.050Z,1.00
2018-09-01T17:30:39.109Z,1.00
2018-09-01T17:33:10.168Z,1.00
2018-09-01T17:35:41.326Z,1.00
2018-09-01T17:38:11.764Z,1.00
2018-09-01T17:40:42.011Z,1.00
2018-09-01T17:43:12.639Z,1.00
2018-09-01T17:45:43.100Z,1.00
2018-09-01T17:48:13.608Z,1.00
2018-09-01T17:50:44.075Z,1.00
2018-09-01T17:53:14.434Z,1.00
2018-09-01T17:55:44.632Z,1.00
2018-09-01T17:58:15.283Z,1.00
2018-09-01T18:00:45.814Z,1.00
2018-09-01T18:03:16.175Z,1.00
2018-09-01T18:05:46.306Z,1.00
2018-09-01T18:08:17.088Z,1.00
2018-09-01T18:10:47.758Z,1.00
2018-09-01T18:13:18.093Z,1.00
2018-09-01T18:15:48.908Z,1.00
2018-09-01T18:18:19.344Z,1.00
2018-09-01T18:20:50.126Z,13.00
2018-09-01T18:23:20.710Z,15.90
2018-09-01T18:25:51.291Z,11.80
2018-09-01T18:28:21.946Z,8.60
2018-09-01T18:30:52.303Z,6.10
2018-09-01T18:33:22.485Z,9.60
2018-09-01T18:35:53.180Z,15.00
2018-09-01T18:38:23.624Z,14.50
2018-09-01T18:40:54.414Z,20.00
2018-09-01T18:43:25.189Z,20.10
2018-09-01T18:45:55.994Z,33.70
2018-09-01T18:48:26.200Z,26.90
2018-09-01T18:50:56.613Z,37.60
2018-09-01T18:53:26.911Z,26.90
2018-09-01T18:55:57.208Z,26.40
2018-09-01T18:58:27.965Z,21.20
2018-09-01T19:00:58.243Z,17.10
2018-09-01T19:03:28.612Z,17.50
2018-09-01T19:05:59.097Z,20.80
2018-09-01T19:08:29.930Z,23.70
2018-09-01T19:11:00.223Z,29.30
2018-09-01T19:13:30.935Z,27.50
2018-09-01T19:16:01.639Z,24.70
2018-09-01T19:18:32.259Z,21.60
2018-09-01T19:21:02.573Z,20.00
2018-09-01T19:23:33.291Z,9.50
2018-09-01T19:26:03.560Z,6.70
2018-09-01T19:28:34.368Z,5.60
2018-09-01T19:31:05.122Z,5.00
2018-09-01T19:33:35.834Z,8.00
2018-09-01T19:36:06.494Z,6.40
2018-09-01T19:38:36.707Z,3.20
2018-09-01T19:41:07.591Z,5.80
2018-09-01T19:43:38.541Z,6.60
2018-09-01T19:46:09.096Z,11.00
2018-09-01T19:48:40.118Z,12.10
2018-09-01T19:51:10.725Z,7.40
2018-09-01T19:53:41.153Z,6.90
2018-09-01T19:56:11.721Z,6.00
2018-09-01T19:58:42.672Z,5.10
2018-09-01T20:01:13.224Z,8.00
2018-09-01T20:03:43.673Z,13.30
2018-09-01T20:06:14.198Z,7.80
2018-09-01T20:08:44.684Z,10.10
2018-09-01T20:11:14.986Z,8.70
2018-09-01T20:13:45.450Z,1.00
2018-09-01T20:16:15.973Z,1.00
2018-09-01T20:18:46.559Z,1.00
2018-09-01T20:21:16.833Z,1.00
2018-09-01T20:23:47.322Z,1.60
2018-09-01T20:26:17.854Z,2.20
2018-09-01T20:28:48.291Z,5.60
2018-09-01T20:31:18.584Z,4.90
2018-09-01T20:33:49.115Z,8.20
2018-09-01T20:36:21.811Z,8.20
2018-09-01T20:38:52.176Z,12.40
2018-09-01T20:41:22.559Z,17.40
2018-09-01T20:43:52.840Z,18.60
2018-09-01T20:46:23.410Z,25.10
2018-09-01T20:48:53.839Z,26.20
2018-09-01T20:51:24.272Z,32.40
2018-09-01T20:53:54.877Z,36.60
2018-09-01T20:56:25.356Z,43.00
2018-09-01T20:58:55.936Z,47.70
2018-09-01T21:01:27.105Z,51.70
2018-09-01T21:03:57.657Z,53.10
2018-09-01T21:06:28.025Z,50.30
2018-09-01T21:08:58.400Z,46.50
2018-09-01T21:11:28.635Z,44.30
2018-09-01T21:13:59.491Z,41.10
2018-09-01T21:16:30.275Z,42.30
2018-09-01T21:19:00.723Z,40.00
2018-09-01T21:21:31.383Z,42.70
2018-09-01T21:24:01.890Z,40.70
2018-09-01T21:26:32.474Z,38.70
2018-09-01T21:29:03.446Z,30.00
2018-09-01T21:31:33.879Z,31.90
2018-09-01T21:34:05.356Z,34.10
2018-09-01T21:36:36.014Z,30.00
2018-09-01T21:39:08.311Z,28.90
2018-09-01T21:41:38.937Z,27.70
2018-09-01T21:44:09.209Z,26.10
2018-09-01T21:46:40.138Z,35.50
2018-09-01T21:49:10.713Z,35.50
2018-09-01T21:51:41.345Z,36.60
2018-09-01T21:54:12.020Z,37.50
2018-09-01T21:56:42.834Z,37.20
2018-09-01T21:59:13.416Z,37.60
2018-09-01T22:01:47.921Z,33.20
2018-09-01T22:04:18.638Z,25.10
2018-09-01T22:06:48.892Z,24.40
2018-09-01T22:09:19.122Z,25.30
2018-09-01T22:11:50.171Z,25.70
2018-09-01T22:14:20.794Z,29.00
2018-09-01T22:16:51.277Z,31.70
2018-09-01T22:19:21.803Z,34.40
2018-09-01T22:21:53.019Z,38.30
2018-09-01T22:24:23.372Z,39.20
2018-09-01T22:26:54.277Z,39.90
2018-09-01T22:29:24.757Z,41.60
2018-09-01T22:31:55.570Z,48.40
2018-09-01T22:34:26.348Z,46.60
2018-09-01T22:36:56.771Z,49.30
2018-09-01T22:39:27.025Z,51.10
2018-09-01T22:41:57.235Z,52.20
2018-09-01T22:44:27.453Z,51.20
2018-09-01T22:46:59.481Z,54.60
2018-09-01T22:49:29.997Z,54.50
2018-09-01T22:52:00.608Z,52.50
2018-09-01T22:54:31.290Z,54.80
2018-09-01T22:57:01.907Z,55.50
2018-09-01T22:59:32.025Z,55.80
2018-09-01T23:02:02.616Z,55.10
2018-09-01T23:04:33.380Z,59.70
2018-09-01T23:07:04.190Z,60.20
2018-09-01T23:09:34.429Z,83.50
2018-09-01T23:12:04.678Z,61.80
2018-09-01T23:14:34.853Z,66.80
2018-09-01T23:17:05.655Z,66.80
2018-09-01T23:19:36.149Z,63.00
2018-09-01T23:22:06.434Z,67.80
2018-09-01T23:24:36.946Z,64.60
2018-09-01T23:27:07.532Z,69.20
2018-09-01T23:29:38.141Z,68.70
2018-09-01T23:32:08.790Z,65.90
2018-09-01T23:34:40.100Z,66.40
2018-09-01T23:37:10.568Z,67.90
2018-09-01T23:39:41.174Z,73.00
2018-09-01T23:42:11.526Z,77.00
2018-09-01T23:44:42.229Z,74.50
2018-09-01T23:47:12.587Z,76.40
2018-09-01T23:49:42.897Z,80.70
2018-09-01T23:52:13.348Z,76.30
2018-09-01T23:54:44.268Z,78.80
2018-09-01T23:57:15.071Z,99.90
2018-09-01T23:59:45.796Z,98.90
